sensor_id;sensor_type;location;lat;lon;timestamp;pressure;altitude;pressure_sealevel;temperature;humidity
50672;BME280;46021;55.882;37.654;2023-04-24T00:01:35;99506.00;;;7.89;52.39
50672;BME280;46021;55.882;37.654;2023-04-24T00:04:02;99511.31;;;7.85;52.74
50672;BME280;46021;55.882;37.654;2023-04-24T00:06:29;99511.41;;;7.80;52.75
50672;BME280;46021;55.882;37.654;2023-04-24T00:08:59;99499.53;;;7.71;53.56
50672;BME280;46021;55.882;37.654;2023-04-24T00:11:26;99510.78;;;7.70;53.37
50672;BME280;46021;55.882;37.654;2023-04-24T00:13:53;99510.00;;;7.67;53.27
50672;BME280;46021;55.882;37.654;2023-04-24T00:16:22;99499.69;;;7.64;53.54
50672;BME280;46021;55.882;37.654;2023-04-24T00:18:49;99503.19;;;7.61;53.69
50672;BME280;46021;55.882;37.654;2023-04-24T00:21:21;99514.50;;;7.58;53.77
50672;BME280;46021;55.882;37.654;2023-04-24T00:23:51;99511.09;;;7.56;53.86
50672;BME280;46021;55.882;37.654;2023-04-24T00:26:18;99512.00;;;7.54;54.00
50672;BME280;46021;55.882;37.654;2023-04-24T00:28:45;99507.78;;;7.50;53.80
50672;BME280;46021;55.882;37.654;2023-04-24T00:31:12;99511.31;;;7.47;54.02
50672;BME280;46021;55.882;37.654;2023-04-24T00:33:41;99509.59;;;7.45;53.95
50672;BME280;46021;55.882;37.654;2023-04-24T00:36:08;99513.09;;;7.44;54.01
50672;BME280;46021;55.882;37.654;2023-04-24T00:38:35;99510.56;;;7.40;54.17
50672;BME280;46021;55.882;37.654;2023-04-24T00:41:03;99504.56;;;7.38;54.28
50672;BME280;46021;55.882;37.654;2023-04-24T00:43:30;99505.41;;;7.39;54.51
50672;BME280;46021;55.882;37.654;2023-04-24T00:45:58;99504.56;;;7.38;54.71
50672;BME280;46021;55.882;37.654;2023-04-24T00:48:27;99508.09;;;7.36;54.27
50672;BME280;46021;55.882;37.654;2023-04-24T00:50:56;99500.38;;;7.31;54.79
50672;BME280;46021;55.882;37.654;2023-04-24T00:53:24;99497.97;;;7.23;54.63
50672;BME280;46021;55.882;37.654;2023-04-24T00:55:51;99504.03;;;7.24;55.06
50672;BME280;46021;55.882;37.654;2023-04-24T00:58:19;99501.53;;;7.18;55.30
50672;BME280;46021;55.882;37.654;2023-04-24T01:00:47;99498.97;;;7.16;56.04
50672;BME280;46021;55.882;37.654;2023-04-24T01:03:16;99512.00;;;7.15;55.44
50672;BME280;46021;55.882;37.654;2023-04-24T01:05:44;99504.25;;;7.12;55.75
50672;BME280;46021;55.882;37.654;2023-04-24T01:08:13;99505.22;;;7.08;56.07
50672;BME280;46021;55.882;37.654;2023-04-24T01:10:41;99507.03;;;7.02;55.66
50672;BME280;46021;55.882;37.654;2023-04-24T01:13:08;99503.63;;;7.00;55.86
50672;BME280;46021;55.882;37.654;2023-04-24T01:15:36;99506.28;;;6.97;56.19
50672;BME280;46021;55.882;37.654;2023-04-24T01:18:03;99514.13;;;6.94;55.82
50672;BME280;46021;55.882;37.654;2023-04-24T01:20:31;99496.94;;;6.90;56.17
50672;BME280;46021;55.882;37.654;2023-04-24T01:23:01;99509.06;;;6.88;56.16
50672;BME280;46021;55.882;37.654;2023-04-24T01:25:28;99503.09;;;6.85;56.33
50672;BME280;46021;55.882;37.654;2023-04-24T01:27:57;99505.72;;;6.83;56.31
50672;BME280;46021;55.882;37.654;2023-04-24T01:30:24;99510.94;;;6.80;56.75
50672;BME280;46021;55.882;37.654;2023-04-24T01:32:52;99509.31;;;6.74;57.19
50672;BME280;46021;55.882;37.654;2023-04-24T01:35:20;99497.19;;;6.76;57.03
50672;BME280;46021;55.882;37.654;2023-04-24T01:37:47;99504.88;;;6.82;56.72
50672;BME280;46021;55.882;37.654;2023-04-24T01:40:15;99503.91;;;6.87;56.32
50672;BME280;46021;55.882;37.654;2023-04-24T01:42:43;99496.19;;;6.83;56.26
50672;BME280;46021;55.882;37.654;2023-04-24T01:45:11;99493.63;;;6.82;56.11
50672;BME280;46021;55.882;37.654;2023-04-24T01:47:39;99500.56;;;6.80;56.48
50672;BME280;46021;55.882;37.654;2023-04-24T01:50:07;99503.16;;;6.80;56.34
50672;BME280;46021;55.882;37.654;2023-04-24T01:52:35;99498.88;;;6.79;56.71
50672;BME280;46021;55.882;37.654;2023-04-24T01:55:02;99502.38;;;6.76;56.45
50672;BME280;46021;55.882;37.654;2023-04-24T01:57:31;99493.78;;;6.73;56.85
50672;BME280;46021;55.882;37.654;2023-04-24T01:59:59;99492.09;;;6.72;56.87
50672;BME280;46021;55.882;37.654;2023-04-24T02:02:31;99501.63;;;6.71;56.76
50672;BME280;46021;55.882;37.654;2023-04-24T02:04:58;99499.06;;;6.70;56.89
50672;BME280;46021;55.882;37.654;2023-04-24T02:07:29;99495.66;;;6.68;56.57
50672;BME280;46021;55.882;37.654;2023-04-24T02:09:56;99493.06;;;6.68;56.58
50672;BME280;46021;55.882;37.654;2023-04-24T02:12:23;99493.03;;;6.69;56.54
50672;BME280;46021;55.882;37.654;2023-04-24T02:14:52;99497.28;;;6.72;56.32
50672;BME280;46021;55.882;37.654;2023-04-24T02:17:19;99494.72;;;6.70;56.46
50672;BME280;46021;55.882;37.654;2023-04-24T02:19:46;99497.28;;;6.72;56.33
50672;BME280;46021;55.882;37.654;2023-04-24T02:22:14;99498.97;;;6.73;56.46
50672;BME280;46021;55.882;37.654;2023-04-24T02:24:41;99504.16;;;6.73;56.17
50672;BME280;46021;55.882;37.654;2023-04-24T02:27:08;99499.84;;;6.75;56.28
50672;BME280;46021;55.882;37.654;2023-04-24T02:29:35;99500.56;;;6.80;57.06
50672;BME280;46021;55.882;37.654;2023-04-24T02:32:04;99500.41;;;6.89;57.27
50672;BME280;46021;55.882;37.654;2023-04-24T02:34:33;99499.22;;;7.06;57.16
50672;BME280;46021;55.882;37.654;2023-04-24T02:37:00;99501.44;;;7.24;57.27
50672;BME280;46021;55.882;37.654;2023-04-24T02:39:27;99498.41;;;7.42;57.59
50672;BME280;46021;55.882;37.654;2023-04-24T02:41:54;99492.84;;;7.59;57.34
50672;BME280;46021;55.882;37.654;2023-04-24T02:44:21;99505.44;;;7.76;57.60
50672;BME280;46021;55.882;37.654;2023-04-24T02:46:49;99502.47;;;7.92;57.40
50672;BME280;46021;55.882;37.654;2023-04-24T02:49:17;99502.94;;;8.09;57.15
50672;BME280;46021;55.882;37.654;2023-04-24T02:51:45;99494.03;;;8.19;57.28
50672;BME280;46021;55.882;37.654;2023-04-24T02:54:12;99508.94;;;8.47;56.78
50672;BME280;46021;55.882;37.654;2023-04-24T02:56:39;99509.28;;;8.68;55.95
50672;BME280;46021;55.882;37.654;2023-04-24T02:59:08;99513.88;;;8.89;55.75
50672;BME280;46021;55.882;37.654;2023-04-24T03:01:36;99514.97;;;9.12;56.05
50672;BME280;46021;55.882;37.654;2023-04-24T03:04:03;99511.66;;;9.36;55.11
50672;BME280;46021;55.882;37.654;2023-04-24T03:06:32;99514.09;;;9.71;55.50
50672;BME280;46021;55.882;37.654;2023-04-24T03:09:01;99517.22;;;10.09;55.47
50672;BME280;46021;55.882;37.654;2023-04-24T03:11:29;99514.28;;;10.46;54.84
50672;BME280;46021;55.882;37.654;2023-04-24T03:13:56;99506.88;;;10.84;54.00
50672;BME280;46021;55.882;37.654;2023-04-24T03:16:23;99508.81;;;11.26;53.66
50672;BME280;46021;55.882;37.654;2023-04-24T03:18:52;99514.13;;;11.70;53.27
50672;BME280;46021;55.882;37.654;2023-04-24T03:21:20;99510.47;;;12.19;52.37
50672;BME280;46021;55.882;37.654;2023-04-24T03:23:49;99512.19;;;12.61;50.98
50672;BME280;46021;55.882;37.654;2023-04-24T03:26:16;99510.56;;;12.98;50.26
50672;BME280;46021;55.882;37.654;2023-04-24T03:28:56;99510.50;;;13.39;49.45
50672;BME280;46021;55.882;37.654;2023-04-24T03:31:23;99513.88;;;13.79;49.00
50672;BME280;46021;55.882;37.654;2023-04-24T03:33:50;99516.09;;;14.23;48.47
50672;BME280;46021;55.882;37.654;2023-04-24T03:36:17;99520.81;;;14.69;47.11
50672;BME280;46021;55.882;37.654;2023-04-24T03:38:45;99510.88;;;15.09;46.49
50672;BME280;46021;55.882;37.654;2023-04-24T03:41:32;99513.72;;;15.53;45.37
50672;BME280;46021;55.882;37.654;2023-04-24T03:44:22;99513.88;;;15.98;44.57
50672;BME280;46021;55.882;37.654;2023-04-24T03:46:50;99512.78;;;16.32;41.47
50672;BME280;46021;55.882;37.654;2023-04-24T03:49:19;99516.06;;;16.66;42.02
50672;BME280;46021;55.882;37.654;2023-04-24T03:51:47;99522.88;;;16.99;41.04
50672;BME280;46021;55.882;37.654;2023-04-24T03:54:21;99517.03;;;17.37;40.07
50672;BME280;46021;55.882;37.654;2023-04-24T03:56:51;99524.16;;;17.64;39.07
50672;BME280;46021;55.882;37.654;2023-04-24T03:59:18;99521.75;;;17.88;37.80
50672;BME280;46021;55.882;37.654;2023-04-24T04:01:52;99518.91;;;18.18;37.05
50672;BME280;46021;55.882;37.654;2023-04-24T04:04:20;99523.94;;;18.36;36.07
50672;BME280;46021;55.882;37.654;2023-04-24T04:06:47;99524.06;;;18.60;36.03
50672;BME280;46021;55.882;37.654;2023-04-24T04:09:14;99525.38;;;18.93;33.04
50672;BME280;46021;55.882;37.654;2023-04-24T04:11:41;99528.34;;;19.14;34.75
50672;BME280;46021;55.882;37.654;2023-04-24T04:14:10;99528.91;;;19.43;34.20
50672;BME280;46021;55.882;37.654;2023-04-24T04:16:40;99518.94;;;19.59;33.92
50672;BME280;46021;55.882;37.654;2023-04-24T04:19:08;99529.47;;;19.85;33.07
50672;BME280;46021;55.882;37.654;2023-04-24T04:21:35;99523.88;;;20.01;32.26
50672;BME280;46021;55.882;37.654;2023-04-24T04:24:11;99520.16;;;20.28;31.90
50672;BME280;46021;55.882;37.654;2023-04-24T04:26:43;99516.63;;;20.51;32.23
50672;BME280;46021;55.882;37.654;2023-04-24T04:29:18;99523.69;;;20.75;31.09
50672;BME280;46021;55.882;37.654;2023-04-24T04:31:47;99523.59;;;20.99;31.15
50672;BME280;46021;55.882;37.654;2023-04-24T04:34:14;99527.84;;;21.47;31.25
50672;BME280;46021;55.882;37.654;2023-04-24T04:36:41;99530.22;;;21.72;30.62
50672;BME280;46021;55.882;37.654;2023-04-24T04:39:24;99527.00;;;22.01;29.56
50672;BME280;46021;55.882;37.654;2023-04-24T04:41:57;99532.38;;;22.11;29.11
50672;BME280;46021;55.882;37.654;2023-04-24T04:44:32;99525.00;;;22.14;28.12
50672;BME280;46021;55.882;37.654;2023-04-24T04:47:02;99534.38;;;21.97;28.18
50672;BME280;46021;55.882;37.654;2023-04-24T04:49:33;99534.47;;;21.96;28.34
50672;BME280;46021;55.882;37.654;2023-04-24T04:52:01;99526.59;;;22.06;28.44
50672;BME280;46021;55.882;37.654;2023-04-24T04:54:28;99536.34;;;22.28;27.95
50672;BME280;46021;55.882;37.654;2023-04-24T04:56:56;99544.66;;;22.55;27.69
50672;BME280;46021;55.882;37.654;2023-04-24T04:59:24;99537.06;;;22.72;27.27
50672;BME280;46021;55.882;37.654;2023-04-24T05:01:59;99538.63;;;22.95;27.08
50672;BME280;46021;55.882;37.654;2023-04-24T05:04:26;99538.38;;;23.29;26.78
50672;BME280;46021;55.882;37.654;2023-04-24T05:06:53;99533.13;;;23.49;25.25
50672;BME280;46021;55.882;37.654;2023-04-24T05:09:22;99532.34;;;23.78;25.35
50672;BME280;46021;55.882;37.654;2023-04-24T05:11:53;99531.94;;;23.72;25.79
50672;BME280;46021;55.882;37.654;2023-04-24T05:14:22;99525.41;;;23.96;25.54
50672;BME280;46021;55.882;37.654;2023-04-24T05:16:49;99530.72;;;24.16;23.86
50672;BME280;46021;55.882;37.654;2023-04-24T05:19:20;99533.28;;;24.46;25.17
50672;BME280;46021;55.882;37.654;2023-04-24T05:21:47;99520.50;;;24.21;24.60
50672;BME280;46021;55.882;37.654;2023-04-24T05:24:14;99526.25;;;24.26;23.13
50672;BME280;46021;55.882;37.654;2023-04-24T05:27:06;99527.66;;;24.69;24.45
50672;BME280;46021;55.882;37.654;2023-04-24T05:29:39;99533.69;;;25.18;24.17
50672;BME280;46021;55.882;37.654;2023-04-24T05:32:08;99532.63;;;25.66;23.61
50672;BME280;46021;55.882;37.654;2023-04-24T05:34:36;99530.81;;;25.85;22.99
50672;BME280;46021;55.882;37.654;2023-04-24T05:37:04;99532.47;;;25.50;22.45
50672;BME280;46021;55.882;37.654;2023-04-24T05:39:33;99534.59;;;25.64;22.23
50672;BME280;46021;55.882;37.654;2023-04-24T05:42:01;99522.47;;;26.16;22.74
50672;BME280;46021;55.882;37.654;2023-04-24T05:44:30;99528.94;;;26.31;21.84
50672;BME280;46021;55.882;37.654;2023-04-24T05:46:58;99532.16;;;26.53;21.74
50672;BME280;46021;55.882;37.654;2023-04-24T05:49:26;99531.72;;;26.83;21.58
50672;BME280;46021;55.882;37.654;2023-04-24T05:51:56;99529.06;;;27.18;21.50
50672;BME280;46021;55.882;37.654;2023-04-24T05:54:23;99534.00;;;27.31;21.09
50672;BME280;46021;55.882;37.654;2023-04-24T05:56:51;99517.28;;;26.76;20.46
50672;BME280;46021;55.882;37.654;2023-04-24T05:59:30;99520.34;;;25.18;20.45
50672;BME280;46021;55.882;37.654;2023-04-24T06:01:57;99531.34;;;23.19;21.23
50672;BME280;46021;55.882;37.654;2023-04-24T06:04:24;99533.75;;;21.50;22.03
50672;BME280;46021;55.882;37.654;2023-04-24T06:06:51;99522.47;;;20.32;23.27
50672;BME280;46021;55.882;37.654;2023-04-24T06:09:23;99522.31;;;19.12;24.40
50672;BME280;46021;55.882;37.654;2023-04-24T06:11:50;99533.84;;;18.45;24.97
50672;BME280;46021;55.882;37.654;2023-04-24T06:14:20;99526.00;;;17.90;25.72
50672;BME280;46021;55.882;37.654;2023-04-24T06:17:06;99534.41;;;17.68;25.77
50672;BME280;46021;55.882;37.654;2023-04-24T06:19:37;99528.13;;;17.57;26.14
50672;BME280;46021;55.882;37.654;2023-04-24T06:22:04;99531.50;;;17.59;25.59
50672;BME280;46021;55.882;37.654;2023-04-24T06:24:34;99539.78;;;17.67;25.53
50672;BME280;46021;55.882;37.654;2023-04-24T06:27:01;99537.88;;;17.69;26.57
50672;BME280;46021;55.882;37.654;2023-04-24T06:29:28;99533.97;;;17.47;26.80
50672;BME280;46021;55.882;37.654;2023-04-24T06:31:56;99536.81;;;17.30;26.60
50672;BME280;46021;55.882;37.654;2023-04-24T06:34:23;99542.44;;;17.24;27.00
50672;BME280;46021;55.882;37.654;2023-04-24T06:36:50;99541.91;;;17.04;27.28
50672;BME280;46021;55.882;37.654;2023-04-24T06:39:17;99533.13;;;16.89;27.24
50672;BME280;46021;55.882;37.654;2023-04-24T06:41:46;99542.81;;;16.89;27.28
50672;BME280;46021;55.882;37.654;2023-04-24T06:44:19;99537.25;;;16.79;27.10
50672;BME280;46021;55.882;37.654;2023-04-24T06:46:46;99532.13;;;16.92;27.11
50672;BME280;46021;55.882;37.654;2023-04-24T06:49:13;99534.94;;;17.03;27.17
50672;BME280;46021;55.882;37.654;2023-04-24T06:51:41;99541.91;;;17.19;27.29
50672;BME280;46021;55.882;37.654;2023-04-24T06:54:08;99539.34;;;17.31;27.03
50672;BME280;46021;55.882;37.654;2023-04-24T06:56:36;99537.94;;;17.40;26.70
50672;BME280;46021;55.882;37.654;2023-04-24T06:59:04;99541.53;;;17.39;26.51
50672;BME280;46021;55.882;37.654;2023-04-24T07:01:31;99529.47;;;17.35;27.00
50672;BME280;46021;55.882;37.654;2023-04-24T07:03:59;99533.31;;;17.44;27.22
50672;BME280;46021;55.882;37.654;2023-04-24T07:06:26;99551.19;;;17.53;26.27
50672;BME280;46021;55.882;37.654;2023-04-24T07:08:53;99543.38;;;17.51;26.04
50672;BME280;46021;55.882;37.654;2023-04-24T07:11:21;99538.84;;;17.53;26.46
50672;BME280;46021;55.882;37.654;2023-04-24T07:13:48;99536.31;;;17.52;26.62
50672;BME280;46021;55.882;37.654;2023-04-24T07:16:17;99542.63;;;17.64;26.24
50672;BME280;46021;55.882;37.654;2023-04-24T07:18:44;99545.59;;;17.72;25.96
50672;BME280;46021;55.882;37.654;2023-04-24T07:21:11;99542.31;;;17.68;26.54
50672;BME280;46021;55.882;37.654;2023-04-24T07:23:38;99538.09;;;17.66;26.20
50672;BME280;46021;55.882;37.654;2023-04-24T07:26:07;99547.19;;;17.74;25.77
50672;BME280;46021;55.882;37.654;2023-04-24T07:28:34;99538.78;;;17.97;25.64
50672;BME280;46021;55.882;37.654;2023-04-24T07:31:01;99545.66;;;18.26;26.19
50672;BME280;46021;55.882;37.654;2023-04-24T07:33:29;99530.78;;;18.38;25.94
50672;BME280;46021;55.882;37.654;2023-04-24T07:35:57;99545.19;;;18.47;25.60
50672;BME280;46021;55.882;37.654;2023-04-24T07:38:24;99542.00;;;18.67;25.31
50672;BME280;46021;55.882;37.654;2023-04-24T07:40:51;99541.88;;;18.83;25.24
50672;BME280;46021;55.882;37.654;2023-04-24T07:43:20;99545.03;;;19.01;25.38
50672;BME280;46021;55.882;37.654;2023-04-24T07:45:47;99541.19;;;19.31;25.05
50672;BME280;46021;55.882;37.654;2023-04-24T07:48:14;99542.38;;;19.40;24.98
50672;BME280;46021;55.882;37.654;2023-04-24T07:50:43;99537.09;;;19.64;24.64
50672;BME280;46021;55.882;37.654;2023-04-24T07:53:11;99531.97;;;19.50;24.33
50672;BME280;46021;55.882;37.654;2023-04-24T07:55:38;99540.34;;;19.43;24.24
50672;BME280;46021;55.882;37.654;2023-04-24T07:58:05;99528.50;;;19.49;24.24
50672;BME280;46021;55.882;37.654;2023-04-24T08:00:32;99532.09;;;19.48;23.98
50672;BME280;46021;55.882;37.654;2023-04-24T08:02:59;99531.75;;;19.53;24.49
50672;BME280;46021;55.882;37.654;2023-04-24T08:05:26;99535.22;;;19.66;24.27
50672;BME280;46021;55.882;37.654;2023-04-24T08:07:55;99525.47;;;19.66;23.45
50672;BME280;46021;55.882;37.654;2023-04-24T08:10:23;99529.69;;;19.69;24.02
50672;BME280;46021;55.882;37.654;2023-04-24T08:12:50;99530.03;;;19.77;23.34
50672;BME280;46021;55.882;37.654;2023-04-24T08:15:17;99529.84;;;19.92;23.53
50672;BME280;46021;55.882;37.654;2023-04-24T08:17:44;99527.94;;;19.94;23.66
50672;BME280;46021;55.882;37.654;2023-04-24T08:20:12;99516.13;;;19.86;23.23
50672;BME280;46021;55.882;37.654;2023-04-24T08:22:40;99522.31;;;19.74;23.42
50672;BME280;46021;55.882;37.654;2023-04-24T08:25:09;99514.59;;;19.58;23.66
50672;BME280;46021;55.882;37.654;2023-04-24T08:27:37;99515.53;;;19.70;24.02
50672;BME280;46021;55.882;37.654;2023-04-24T08:30:06;99519.78;;;19.60;23.71
50672;BME280;46021;55.882;37.654;2023-04-24T08:32:34;99517.50;;;19.42;24.31
50672;BME280;46021;55.882;37.654;2023-04-24T08:35:01;99516.47;;;19.32;23.86
50672;BME280;46021;55.882;37.654;2023-04-24T08:37:31;99509.09;;;19.24;24.20
50672;BME280;46021;55.882;37.654;2023-04-24T08:39:58;99510.59;;;19.53;24.21
50672;BME280;46021;55.882;37.654;2023-04-24T08:42:28;99506.22;;;19.77;23.86
50672;BME280;46021;55.882;37.654;2023-04-24T08:44:57;99513.16;;;20.15;23.78
50672;BME280;46021;55.882;37.654;2023-04-24T08:47:25;99513.22;;;20.38;23.33
50672;BME280;46021;55.882;37.654;2023-04-24T08:49:54;99508.00;;;20.72;23.95
50672;BME280;46021;55.882;37.654;2023-04-24T08:52:22;99497.97;;;21.88;23.68
50672;BME280;46021;55.882;37.654;2023-04-24T08:54:50;99492.50;;;23.47;23.11
50672;BME280;46021;55.882;37.654;2023-04-24T08:57:17;99490.53;;;23.89;20.65
50672;BME280;46021;55.882;37.654;2023-04-24T08:59:46;99492.91;;;24.22;20.96
50672;BME280;46021;55.882;37.654;2023-04-24T09:02:14;99493.69;;;24.71;20.69
50672;BME280;46021;55.882;37.654;2023-04-24T09:04:43;99484.22;;;25.34;19.66
50672;BME280;46021;55.882;37.654;2023-04-24T09:07:12;99485.66;;;25.18;19.30
50672;BME280;46021;55.882;37.654;2023-04-24T09:09:41;99483.66;;;24.93;19.54
50672;BME280;46021;55.882;37.654;2023-04-24T09:12:09;99487.84;;;24.95;19.71
50672;BME280;46021;55.882;37.654;2023-04-24T09:14:36;99481.44;;;25.25;19.03
50672;BME280;46021;55.882;37.654;2023-04-24T09:17:10;99483.91;;;24.62;19.27
50672;BME280;46021;55.882;37.654;2023-04-24T09:19:37;99486.75;;;24.31;19.81
50672;BME280;46021;55.882;37.654;2023-04-24T09:22:04;99480.34;;;25.46;19.84
50672;BME280;46021;55.882;37.654;2023-04-24T09:24:33;99483.22;;;27.13;19.24
50672;BME280;46021;55.882;37.654;2023-04-24T09:27:01;99482.34;;;28.30;18.07
50672;BME280;46021;55.882;37.654;2023-04-24T09:29:28;99463.88;;;27.86;17.17
50672;BME280;46021;55.882;37.654;2023-04-24T09:31:55;99470.47;;;27.41;16.89
50672;BME280;46021;55.882;37.654;2023-04-24T09:34:25;99469.28;;;26.22;17.34
50672;BME280;46021;55.882;37.654;2023-04-24T09:36:53;99469.53;;;25.10;18.39
50672;BME280;46021;55.882;37.654;2023-04-24T09:39:21;99474.22;;;24.41;19.03
50672;BME280;46021;55.882;37.654;2023-04-24T09:41:48;99483.03;;;23.73;19.09
50672;BME280;46021;55.882;37.654;2023-04-24T09:44:16;99473.41;;;23.22;19.73
50672;BME280;46021;55.882;37.654;2023-04-24T09:46:46;99459.88;;;23.04;20.50
50672;BME280;46021;55.882;37.654;2023-04-24T09:49:16;99453.19;;;23.10;20.02
50672;BME280;46021;55.882;37.654;2023-04-24T09:51:48;99454.66;;;23.24;20.41
50672;BME280;46021;55.882;37.654;2023-04-24T09:54:17;99445.19;;;24.38;20.10
50672;BME280;46021;55.882;37.654;2023-04-24T09:56:46;99444.88;;;25.99;19.52
50672;BME280;46021;55.882;37.654;2023-04-24T09:59:15;99433.72;;;27.68;18.70
50672;BME280;46021;55.882;37.654;2023-04-24T10:01:42;99446.28;;;29.22;17.42
50672;BME280;46021;55.882;37.654;2023-04-24T10:04:17;99443.50;;;28.26;16.44
50672;BME280;46021;55.882;37.654;2023-04-24T10:06:45;99446.47;;;28.48;17.13
50672;BME280;46021;55.882;37.654;2023-04-24T10:09:14;99446.09;;;28.67;16.43
50672;BME280;46021;55.882;37.654;2023-04-24T10:11:42;99436.06;;;29.48;16.46
50672;BME280;46021;55.882;37.654;2023-04-24T10:14:12;99430.88;;;30.39;15.93
50672;BME280;46021;55.882;37.654;2023-04-24T10:16:40;99430.69;;;30.41;15.64
50672;BME280;46021;55.882;37.654;2023-04-24T10:19:08;99433.94;;;30.81;15.50
50672;BME280;46021;55.882;37.654;2023-04-24T10:21:35;99437.13;;;30.99;15.41
50672;BME280;46021;55.882;37.654;2023-04-24T10:24:05;99428.69;;;31.54;15.05
50672;BME280;46021;55.882;37.654;2023-04-24T10:26:35;99437.09;;;30.17;14.65
50672;BME280;46021;55.882;37.654;2023-04-24T10:29:05;99439.81;;;29.93;15.15
50672;BME280;46021;55.882;37.654;2023-04-24T10:31:36;99434.06;;;29.73;15.17
50672;BME280;46021;55.882;37.654;2023-04-24T10:34:04;99431.13;;;29.60;15.66
50672;BME280;46021;55.882;37.654;2023-04-24T10:36:33;99418.81;;;29.74;15.21
50672;BME280;46021;55.882;37.654;2023-04-24T10:39:02;99421.88;;;29.00;15.82
50672;BME280;46021;55.882;37.654;2023-04-24T10:41:30;99411.41;;;29.68;15.70
50672;BME280;46021;55.882;37.654;2023-04-24T10:44:06;99414.06;;;29.53;15.05
50672;BME280;46021;55.882;37.654;2023-04-24T10:46:34;99412.09;;;29.15;15.78
50672;BME280;46021;55.882;37.654;2023-04-24T10:49:04;99418.41;;;28.83;16.14
50672;BME280;46021;55.882;37.654;2023-04-24T10:51:48;99411.91;;;29.71;15.41
50672;BME280;46021;55.882;37.654;2023-04-24T10:54:23;99416.34;;;30.93;14.91
50672;BME280;46021;55.882;37.654;2023-04-24T10:56:51;99394.88;;;31.73;14.68
50672;BME280;46021;55.882;37.654;2023-04-24T10:59:27;99400.91;;;30.87;13.99
50672;BME280;46021;55.882;37.654;2023-04-24T11:01:54;99405.19;;;30.66;14.79
50672;BME280;46021;55.882;37.654;2023-04-24T11:04:32;99400.53;;;30.30;14.53
50672;BME280;46021;55.882;37.654;2023-04-24T11:07:02;99398.63;;;29.47;15.26
50672;BME280;46021;55.882;37.654;2023-04-24T11:09:31;99398.28;;;29.27;15.07
50672;BME280;46021;55.882;37.654;2023-04-24T11:12:06;99391.88;;;28.24;15.49
50672;BME280;46021;55.882;37.654;2023-04-24T11:15:01;99401.63;;;28.00;15.49
50672;BME280;46021;55.882;37.654;2023-04-24T11:17:34;99389.00;;;28.42;16.05
50672;BME280;46021;55.882;37.654;2023-04-24T11:20:04;99387.00;;;29.00;15.52
50672;BME280;46021;55.882;37.654;2023-04-24T11:22:34;99379.53;;;29.10;15.37
50672;BME280;46021;55.882;37.654;2023-04-24T11:25:02;99381.03;;;29.90;15.20
50672;BME280;46021;55.882;37.654;2023-04-24T11:27:38;99370.25;;;28.90;15.08
50672;BME280;46021;55.882;37.654;2023-04-24T11:30:09;99384.50;;;28.18;15.39
50672;BME280;46021;55.882;37.654;2023-04-24T11:32:38;99382.13;;;27.41;16.05
50672;BME280;46021;55.882;37.654;2023-04-24T11:35:08;99380.84;;;27.78;15.89
50672;BME280;46021;55.882;37.654;2023-04-24T11:37:36;99390.22;;;27.74;16.01
50672;BME280;46021;55.882;37.654;2023-04-24T11:40:05;99373.63;;;27.37;15.80
50672;BME280;46021;55.882;37.654;2023-04-24T11:42:34;99375.84;;;26.99;16.35
50672;BME280;46021;55.882;37.654;2023-04-24T11:45:01;99364.94;;;27.01;16.45
50672;BME280;46021;55.882;37.654;2023-04-24T11:47:33;99368.94;;;26.89;16.42
50672;BME280;46021;55.882;37.654;2023-04-24T11:50:01;99360.41;;;27.69;16.37
50672;BME280;46021;55.882;37.654;2023-04-24T11:52:30;99360.69;;;28.31;16.34
50672;BME280;46021;55.882;37.654;2023-04-24T11:54:58;99344.19;;;28.75;15.94
50672;BME280;46021;55.882;37.654;2023-04-24T11:57:25;99338.06;;;28.90;15.73
50672;BME280;46021;55.882;37.654;2023-04-24T11:59:54;99349.81;;;28.81;15.82
50672;BME280;46021;55.882;37.654;2023-04-24T12:02:22;99343.28;;;28.83;15.55
50672;BME280;46021;55.882;37.654;2023-04-24T12:04:51;99339.94;;;29.12;15.47
50672;BME280;46021;55.882;37.654;2023-04-24T12:07:19;99337.13;;;29.06;15.65
50672;BME280;46021;55.882;37.654;2023-04-24T12:09:47;99325.94;;;28.63;15.43
50672;BME280;46021;55.882;37.654;2023-04-24T12:12:16;99332.16;;;28.63;15.65
50672;BME280;46021;55.882;37.654;2023-04-24T12:14:45;99322.47;;;28.46;15.47
50672;BME280;46021;55.882;37.654;2023-04-24T12:17:14;99336.56;;;28.39;15.50
50672;BME280;46021;55.882;37.654;2023-04-24T12:19:45;99338.00;;;27.94;15.54
50672;BME280;46021;55.882;37.654;2023-04-24T12:22:15;99333.63;;;27.36;15.83
50672;BME280;46021;55.882;37.654;2023-04-24T12:24:58;99325.16;;;26.98;15.90
50672;BME280;46021;55.882;37.654;2023-04-24T12:27:27;99323.38;;;26.64;16.50
50672;BME280;46021;55.882;37.654;2023-04-24T12:29:56;99330.75;;;26.10;16.29
50672;BME280;46021;55.882;37.654;2023-04-24T12:32:24;99336.16;;;25.38;16.69
50672;BME280;46021;55.882;37.654;2023-04-24T12:34:52;99339.66;;;24.93;16.98
50672;BME280;46021;55.882;37.654;2023-04-24T12:37:22;99320.53;;;24.51;17.38
50672;BME280;46021;55.882;37.654;2023-04-24T12:40:00;99333.31;;;23.71;18.02
50672;BME280;46021;55.882;37.654;2023-04-24T12:42:31;99329.13;;;23.79;18.03
50672;BME280;46021;55.882;37.654;2023-04-24T12:44:58;99327.41;;;24.07;18.02
50672;BME280;46021;55.882;37.654;2023-04-24T12:47:26;99325.44;;;23.99;17.90
50672;BME280;46021;55.882;37.654;2023-04-24T12:49:53;99325.63;;;24.35;18.02
50672;BME280;46021;55.882;37.654;2023-04-24T12:52:23;99318.13;;;24.48;18.00
50672;BME280;46021;55.882;37.654;2023-04-24T12:54:53;99308.78;;;24.35;17.50
50672;BME280;46021;55.882;37.654;2023-04-24T12:57:21;99313.16;;;23.79;18.00
50672;BME280;46021;55.882;37.654;2023-04-24T12:59:48;99309.94;;;23.55;18.31
50672;BME280;46021;55.882;37.654;2023-04-24T13:02:16;99311.34;;;23.50;18.54